MSC Nuria — 3ESE2 — position and weather

sailwx.info

Track history (hours):
 
Tides and Currents Weather Stations Pressure Air Temp Water Temp Dewpoint Dewpoint Depression Visibility Wind Speed Wind Dir Waves Ship Positions

MSC Nuria

Last reported at 2015-Mar-07 09:26 UTC. Time now 2015-Mar-29 17:22 UTC.
Position N 40°17' W 032°42'.
Warning: this ship's position is 22 days out of date.

Length 275 m; draft 10 m.

Type: Ship (hazmat cat A). MMSI: 370272977.

Date/timePositionNaut miles runAvg speedWind from/ knotsBaromVisibWave heightAir tempDewpointWater temp
2015-Mar-07 09:26N 40°17' W 032°42'1818.4
2015-Mar-07 08:28N 40°24' W 032°20'2118.2
2015-Mar-07 07:19N 40°32' W 031°55'3218.4
2015-Mar-07 05:34N 40°45' W 031°16'1818.4
2015-Mar-07 04:33N 40°53' W 030°54'1918.0
2015-Mar-07 03:31N 41°00' W 030°32'1818.4
2015-Mar-07 02:34N 41°08' W 030°10'1818.0
2015-Mar-07 01:33N 41°15' W 029°48'1817.7
2015-Mar-07 00:31N 41°22' W 029°26'1818.1
2015-Mar-06 23:32N 41°30' W 029°04'1818.2
2015-Mar-06 22:32N 41°37' W 028°42'  
2015-Mar-03 23:33N 50°33' E 000°21'1918.9
2015-Mar-03 22:33N 50°42' E 000°47'1918.5
2015-Mar-03 21:33N 50°52' E 001°12'1919.4
2015-Mar-03 20:33N 51°05' E 001°34'2121.0
2015-Mar-03 19:33N 51°23' E 001°52'2121.3
2015-Mar-03 18:33N 51°38' E 002°16'11619.3
2015-Mar-03 12:33N 53°07' E 004°17'2019.9
2015-Mar-03 11:33N 53°24' E 004°34'2019.6
2015-Mar-03 10:33N 53°35' E 005°01'2019.7
2015-Mar-03 09:33N 53°41' E 005°33'1918.8
2015-Mar-03 08:33N 53°47' E 006°04'3618.1
2015-Mar-03 06:32N 53°56' E 007°04'1818.1
2015-Mar-03 05:33N 53°59' E 007°33'1413.9
2015-Mar-03 04:33N 53°52' E 007°53'1514.7
2015-Mar-03 03:33N 53°44' E 008°14'1413.6
2015-Mar-03 02:33N 53°35' E 008°32'1 0.9
2015-Mar-03 01:33N 53°34' E 008°32'0 0.0
2015-Mar-03 00:32N 53°34' E 008°32'0 0.0
2015-Mar-02 23:29N 53°34' E 008°32'0 0.0
2015-Mar-02 22:31N 53°34' E 008°32'0 0.0
2015-Mar-02 21:31N 53°34' E 008°32'0 0.0
2015-Mar-02 20:34N 53°34' E 008°32'0 0.0
2015-Mar-02 19:30N 53°34' E 008°32'0 0.0
2015-Mar-02 18:33N 53°34' E 008°32'0 0.0
2015-Mar-02 17:32N 53°34' E 008°32'0 0.0
2015-Mar-02 16:32N 53°34' E 008°32'0 0.0
2015-Mar-02 15:31N 53°34' E 008°32'0 0.0
2015-Mar-02 14:31N 53°34' E 008°32'0 0.0
2015-Mar-02 13:33N 53°34' E 008°32'0 0.0
2015-Mar-02 12:32N 53°34' E 008°32'0 0.0
2015-Mar-02 11:32N 53°34' E 008°32'0 0.0
2015-Mar-02 10:32N 53°34' E 008°32'0 0.0
2015-Mar-02 09:31N 53°34' E 008°32'0 0.0
2015-Mar-02 08:31N 53°34' E 008°32'0 0.0
2015-Mar-02 07:34N 53°34' E 008°32'0 0.0
2015-Mar-02 06:30N 53°34' E 008°32'0 0.0
2015-Mar-02 05:33N 53°34' E 008°32'0 0.0
2015-Mar-02 04:32N 53°34' E 008°32'0 0.0
2015-Mar-02 03:32N 53°34' E 008°32'0 0.0
2015-Mar-02 02:31N 53°34' E 008°32'0 0.0
2015-Mar-02 01:31N 53°34' E 008°32'0 0.0
2015-Mar-02 00:33N 53°34' E 008°32'0 0.0
2015-Mar-01 23:31N 53°34' E 008°32'0 0.0
2015-Mar-01 22:31N 53°34' E 008°32'0 0.1
2015-Mar-01 21:33N 53°34' E 008°32'1211.8
2015-Mar-01 20:33N 53°43' E 008°18'1919.1
2015-Mar-01 19:33N 53°52' E 007°50'2121.3
2015-Mar-01 18:33N 53°53' E 007°14'2521.7
2015-Mar-01 17:25N 53°47' E 006°33'1921.8
2015-Mar-01 16:33N 53°42' E 006°03'2222.1
2015-Mar-01 15:34N 53°35' E 005°28'2222.2
2015-Mar-01 14:33N 53°27' E 004°53'2321.4
2015-Mar-01 13:30N 53°09' E 004°29'2222.2
2015-Mar-01 12:31N 52°50' E 004°12'2421.7
2015-Mar-01 11:25N 52°35' E 003°41'2021.7
2015-Mar-01 10:31N 52°16' E 003°32'2121.6
2015-Mar-01 09:32N 51°56' E 003°23'1515.1
2015-Mar-01 08:32N 51°42' E 003°14'1818.3
2015-Mar-01 07:32N 51°26' E 002°60'1515.1
2015-Mar-01 06:33N 51°25' E 003°23'1110.5
2015-Mar-01 05:33N 51°27' E 003°40'1111.1
2015-Mar-01 04:33N 51°24' E 003°57'10 9.8
2015-Mar-01 03:33N 51°23' E 004°13'3 3.2
2015-Mar-01 02:34N 51°21' E 004°17'2 1.7
2015-Mar-01 01:33N 51°19' E 004°19'0 0.2
2015-Mar-01 00:32N 51°19' E 004°19'0 0.0
2015-Feb-28 23:28N 51°19' E 004°19'0 0.0
2015-Feb-28 22:28N 51°19' E 004°19'0 0.0
2015-Feb-28 21:31N 51°19' E 004°19'0 0.0
2015-Feb-28 20:33N 51°19' E 004°19'0 0.0
2015-Feb-28 19:30N 51°19' E 004°19'0 0.0
2015-Feb-28 18:32N 51°19' E 004°19'0 0.0
2015-Feb-28 17:32N 51°19' E 004°19'0 0.0
2015-Feb-28 16:31N 51°19' E 004°19'0 0.0
2015-Feb-28 15:28N 51°19' E 004°19'0 0.0
2015-Feb-28 14:33N 51°19' E 004°19'0 0.0
2015-Feb-28 13:33N 51°19' E 004°19'0 0.0
2015-Feb-28 12:33N 51°19' E 004°19'0 0.0
2015-Feb-28 11:32N 51°19' E 004°19'0 0.0
2015-Feb-28 10:32N 51°19' E 004°19'0 0.0
2015-Feb-28 09:28N 51°19' E 004°19'0 0.0
2015-Feb-28 08:31N 51°19' E 004°19'0 0.0
2015-Feb-28 07:31N 51°19' E 004°19'0 0.0
2015-Feb-28 06:33N 51°19' E 004°19'0 0.0
2015-Feb-28 05:33N 51°19' E 004°19'0 0.0
2015-Feb-28 04:32N 51°19' E 004°19'0 0.0
2015-Feb-28 03:29N 51°19' E 004°19'0 0.0
2015-Feb-28 02:31N 51°19' E 004°19'1 0.5
2015-Feb-28 01:33N 51°20' E 004°20'0 0.3
2015-Feb-28 00:31N 51°20' E 004°20'0 0.0
2015-Feb-27 23:31N 51°20' E 004°20'0 0.0
2015-Feb-27 22:33N 51°20' E 004°20'0 0.0
2015-Feb-27 21:33N 51°20' E 004°20'0 0.0
2015-Feb-27 20:29N 51°20' E 004°20'0 0.0
2015-Feb-27 19:32N 51°20' E 004°20'0 0.0
2015-Feb-27 18:29N 51°20' E 004°20'0 0.0
2015-Feb-27 17:31N 51°20' E 004°20'0 0.0
2015-Feb-27 16:31N 51°20' E 004°20'0 0.0
2015-Feb-27 15:32N 51°20' E 004°20'0 0.0
2015-Feb-27 14:30N 51°20' E 004°20'0 0.0
2015-Feb-27 13:32N 51°20' E 004°20'0 0.0
2015-Feb-27 12:29N 51°20' E 004°20'0 0.0
2015-Feb-27 11:32N 51°20' E 004°20'0 0.0
2015-Feb-27 10:32N 51°20' E 004°20'0 0.0
2015-Feb-27 09:33N 51°20' E 004°20'0 0.0
2015-Feb-27 08:25N 51°20' E 004°20'0 0.0
2015-Feb-27 07:33N 51°20' E 004°20'0 0.0
2015-Feb-27 06:33N 51°20' E 004°20'0 0.0
2015-Feb-27 05:33N 51°20' E 004°20'0 0.0
2015-Feb-27 04:32N 51°20' E 004°20'0 0.0
2015-Feb-27 03:32N 51°20' E 004°20'1 1.0
2015-Feb-27 02:34N 51°19' E 004°19'2 1.6
2015-Feb-27 01:34N 51°21' E 004°17'1 0.6
2015-Feb-27 00:34N 51°21' E 004°16'8 7.7
2015-Feb-26 23:34N 51°22' E 004°04'7 6.6
2015-Feb-26 22:33N 51°21' E 003°54'1110.7
2015-Feb-26 21:33N 51°26' E 003°38'1211.8
2015-Feb-26 20:33N 51°24' E 003°20'1717.3
2015-Feb-26 19:33N 51°25' E 002°52'1716.6
2015-Feb-26 18:34N 51°21' E 002°26'1919.0
2015-Feb-26 17:33N 51°12' E 002°00'1919.4
2015-Feb-26 16:34N 50°60' E 001°36'4520.1
2015-Feb-26 14:18N 50°27' E 000°46'1621.3
2015-Feb-26 13:33N 50°23' E 000°21'  
Track history (hours):
 
Tides and Currents Weather Stations Pressure Air Temp Water Temp Dewpoint Dewpoint Depression Visibility Wind Speed Wind Dir Waves Ship Positions

MSC Nuria

Last reported at 2015-Mar-07 09:26 UTC. Time now 2015-Mar-29 17:22 UTC.
Position N 40°17' W 032°42'.
Warning: this ship's position is 22 days out of date.

Length 275 m; draft 10 m.

Type: Ship (hazmat cat A). MMSI: 370272977.

Date/timePositionNaut miles runAvg speedWind from/ knotsBaromVisibWave heightAir tempDewpointWater temp
2015-Mar-07 09:26N 40°17' W 032°42'1818.4
2015-Mar-07 08:28N 40°24' W 032°20'2118.2
2015-Mar-07 07:19N 40°32' W 031°55'3218.4
2015-Mar-07 05:34N 40°45' W 031°16'1818.4
2015-Mar-07 04:33N 40°53' W 030°54'1918.0
2015-Mar-07 03:31N 41°00' W 030°32'1818.4
2015-Mar-07 02:34N 41°08' W 030°10'1818.0
2015-Mar-07 01:33N 41°15' W 029°48'1817.7
2015-Mar-07 00:31N 41°22' W 029°26'1818.1
2015-Mar-06 23:32N 41°30' W 029°04'1818.2
2015-Mar-06 22:32N 41°37' W 028°42'  
2015-Mar-03 23:33N 50°33' E 000°21'1918.9
2015-Mar-03 22:33N 50°42' E 000°47'1918.5
2015-Mar-03 21:33N 50°52' E 001°12'1919.4
2015-Mar-03 20:33N 51°05' E 001°34'2121.0
2015-Mar-03 19:33N 51°23' E 001°52'2121.3
2015-Mar-03 18:33N 51°38' E 002°16'11619.3
2015-Mar-03 12:33N 53°07' E 004°17'2019.9
2015-Mar-03 11:33N 53°24' E 004°34'2019.6
2015-Mar-03 10:33N 53°35' E 005°01'2019.7
2015-Mar-03 09:33N 53°41' E 005°33'1918.8
2015-Mar-03 08:33N 53°47' E 006°04'3618.1
2015-Mar-03 06:32N 53°56' E 007°04'1818.1
2015-Mar-03 05:33N 53°59' E 007°33'1413.9
2015-Mar-03 04:33N 53°52' E 007°53'1514.7
2015-Mar-03 03:33N 53°44' E 008°14'1413.6
2015-Mar-03 02:33N 53°35' E 008°32'1 0.9
2015-Mar-03 01:33N 53°34' E 008°32'0 0.0
2015-Mar-03 00:32N 53°34' E 008°32'0 0.0
2015-Mar-02 23:29N 53°34' E 008°32'0 0.0
2015-Mar-02 22:31N 53°34' E 008°32'0 0.0
2015-Mar-02 21:31N 53°34' E 008°32'0 0.0
2015-Mar-02 20:34N 53°34' E 008°32'0 0.0
2015-Mar-02 19:30N 53°34' E 008°32'0 0.0
2015-Mar-02 18:33N 53°34' E 008°32'0 0.0
2015-Mar-02 17:32N 53°34' E 008°32'0 0.0
2015-Mar-02 16:32N 53°34' E 008°32'0 0.0
2015-Mar-02 15:31N 53°34' E 008°32'0 0.0
2015-Mar-02 14:31N 53°34' E 008°32'0 0.0
2015-Mar-02 13:33N 53°34' E 008°32'0 0.0
2015-Mar-02 12:32N 53°34' E 008°32'0 0.0
2015-Mar-02 11:32N 53°34' E 008°32'0 0.0
2015-Mar-02 10:32N 53°34' E 008°32'0 0.0
2015-Mar-02 09:31N 53°34' E 008°32'0 0.0
2015-Mar-02 08:31N 53°34' E 008°32'0 0.0
2015-Mar-02 07:34N 53°34' E 008°32'0 0.0
2015-Mar-02 06:30N 53°34' E 008°32'0 0.0
2015-Mar-02 05:33N 53°34' E 008°32'0 0.0
2015-Mar-02 04:32N 53°34' E 008°32'0 0.0
2015-Mar-02 03:32N 53°34' E 008°32'0 0.0
2015-Mar-02 02:31N 53°34' E 008°32'0 0.0
2015-Mar-02 01:31N 53°34' E 008°32'0 0.0
2015-Mar-02 00:33N 53°34' E 008°32'0 0.0
2015-Mar-01 23:31N 53°34' E 008°32'0 0.0
2015-Mar-01 22:31N 53°34' E 008°32'0 0.1
2015-Mar-01 21:33N 53°34' E 008°32'1211.8
2015-Mar-01 20:33N 53°43' E 008°18'1919.1
2015-Mar-01 19:33N 53°52' E 007°50'2121.3
2015-Mar-01 18:33N 53°53' E 007°14'2521.7
2015-Mar-01 17:25N 53°47' E 006°33'1921.8
2015-Mar-01 16:33N 53°42' E 006°03'2222.1
2015-Mar-01 15:34N 53°35' E 005°28'2222.2
2015-Mar-01 14:33N 53°27' E 004°53'2321.4
2015-Mar-01 13:30N 53°09' E 004°29'2222.2
2015-Mar-01 12:31N 52°50' E 004°12'2421.7
2015-Mar-01 11:25N 52°35' E 003°41'2021.7
2015-Mar-01 10:31N 52°16' E 003°32'2121.6
2015-Mar-01 09:32N 51°56' E 003°23'1515.1
2015-Mar-01 08:32N 51°42' E 003°14'1818.3
2015-Mar-01 07:32N 51°26' E 002°60'1515.1
2015-Mar-01 06:33N 51°25' E 003°23'1110.5
2015-Mar-01 05:33N 51°27' E 003°40'1111.1
2015-Mar-01 04:33N 51°24' E 003°57'10 9.8
2015-Mar-01 03:33N 51°23' E 004°13'3 3.2
2015-Mar-01 02:34N 51°21' E 004°17'2 1.7
2015-Mar-01 01:33N 51°19' E 004°19'0 0.2
2015-Mar-01 00:32N 51°19' E 004°19'0 0.0
2015-Feb-28 23:28N 51°19' E 004°19'0 0.0
2015-Feb-28 22:28N 51°19' E 004°19'0 0.0
2015-Feb-28 21:31N 51°19' E 004°19'0 0.0
2015-Feb-28 20:33N 51°19' E 004°19'0 0.0
2015-Feb-28 19:30N 51°19' E 004°19'0 0.0
2015-Feb-28 18:32N 51°19' E 004°19'0 0.0
2015-Feb-28 17:32N 51°19' E 004°19'0 0.0
2015-Feb-28 16:31N 51°19' E 004°19'0 0.0
2015-Feb-28 15:28N 51°19' E 004°19'0 0.0
2015-Feb-28 14:33N 51°19' E 004°19'0 0.0
2015-Feb-28 13:33N 51°19' E 004°19'0 0.0
2015-Feb-28 12:33N 51°19' E 004°19'0 0.0
2015-Feb-28 11:32N 51°19' E 004°19'0 0.0
2015-Feb-28 10:32N 51°19' E 004°19'0 0.0
2015-Feb-28 09:28N 51°19' E 004°19'0 0.0
2015-Feb-28 08:31N 51°19' E 004°19'0 0.0
2015-Feb-28 07:31N 51°19' E 004°19'0 0.0
2015-Feb-28 06:33N 51°19' E 004°19'0 0.0
2015-Feb-28 05:33N 51°19' E 004°19'0 0.0
2015-Feb-28 04:32N 51°19' E 004°19'0 0.0
2015-Feb-28 03:29N 51°19' E 004°19'0 0.0
2015-Feb-28 02:31N 51°19' E 004°19'1 0.5
2015-Feb-28 01:33N 51°20' E 004°20'0 0.3
2015-Feb-28 00:31N 51°20' E 004°20'0 0.0
2015-Feb-27 23:31N 51°20' E 004°20'0 0.0
2015-Feb-27 22:33N 51°20' E 004°20'0 0.0
2015-Feb-27 21:33N 51°20' E 004°20'0 0.0
2015-Feb-27 20:29N 51°20' E 004°20'0 0.0
2015-Feb-27 19:32N 51°20' E 004°20'0 0.0
2015-Feb-27 18:29N 51°20' E 004°20'0 0.0
2015-Feb-27 17:31N 51°20' E 004°20'0 0.0
2015-Feb-27 16:31N 51°20' E 004°20'0 0.0
2015-Feb-27 15:32N 51°20' E 004°20'0 0.0
2015-Feb-27 14:30N 51°20' E 004°20'0 0.0
2015-Feb-27 13:32N 51°20' E 004°20'0 0.0
2015-Feb-27 12:29N 51°20' E 004°20'0 0.0
2015-Feb-27 11:32N 51°20' E 004°20'0 0.0
2015-Feb-27 10:32N 51°20' E 004°20'0 0.0
2015-Feb-27 09:33N 51°20' E 004°20'0 0.0
2015-Feb-27 08:25N 51°20' E 004°20'0 0.0
2015-Feb-27 07:33N 51°20' E 004°20'0 0.0
2015-Feb-27 06:33N 51°20' E 004°20'0 0.0
2015-Feb-27 05:33N 51°20' E 004°20'0 0.0
2015-Feb-27 04:32N 51°20' E 004°20'0 0.0
2015-Feb-27 03:32N 51°20' E 004°20'1 1.0
2015-Feb-27 02:34N 51°19' E 004°19'2 1.6
2015-Feb-27 01:34N 51°21' E 004°17'1 0.6
2015-Feb-27 00:34N 51°21' E 004°16'8 7.7
2015-Feb-26 23:34N 51°22' E 004°04'7 6.6
2015-Feb-26 22:33N 51°21' E 003°54'1110.7
2015-Feb-26 21:33N 51°26' E 003°38'1211.8
2015-Feb-26 20:33N 51°24' E 003°20'1717.3
2015-Feb-26 19:33N 51°25' E 002°52'1716.6
2015-Feb-26 18:34N 51°21' E 002°26'1919.0
2015-Feb-26 17:33N 51°12' E 002°00'1919.4
2015-Feb-26 16:34N 50°60' E 001°36'4520.1
2015-Feb-26 14:18N 50°27' E 000°46'1621.3
2015-Feb-26 13:33N 50°23' E 000°21'  

Dump ship's entire track history